Авиационная погода в Зонгулдаке

СКИДКИ НА СМАРТФОНЫ!

Регион: 
Погода METAR: 
LTAS 181250Z 01009KT 340V040 9999 FEW040 30/20 Q1009
Время наблюдения
2022-08-18T12:50:00Z
Температура C
30.0
Точка росы
20.0
Направление ветра
10
Скорость ветра (узлы)
9
Метео видимость
6.21
Облачность
FEW
Нижняя граница облачности (футы)
4000
Явления погоды
Условия полета
VFR
FEW – незначительная облачность;

Скидки на навигаторы!